Time;durP1;ratioP1;P1;durP2;ratioP2;P2;SDS_P1;SDS_P2;PMS_P1;PMS_P2;Temp;Humidity;BMP_temperature;BMP_pressure;BME280_temperature;BME280_humidity;BME280_pressure;Samples;Min_cycle;Max_cycle;Signal;HPM_P1;HPM_P2
2021/07/08 00:01:01;;;;;;;16.92;10.80;;;;;;;;;;1501654;39;20035;-63
2021/07/08 00:02:03;;;;;;;16.00;10.95;;;;;;;;;;1501506;39;20019;-62
2021/07/08 00:03:06;;;;;;;16.67;10.38;;;;;;;;;;1501392;39;20370;-61
2021/07/08 00:04:07;;;;;;;14.90;10.88;;;;;;;;;;1501628;39;20023;-62
2021/07/08 00:05:11;;;;;;;13.57;9.77;;;;;;;;;;1501598;39;20368;-62
2021/07/08 00:06:12;;;;;;;17.45;10.60;;;;;;;;;;1501581;39;20016;-61
2021/07/08 00:07:14;;;;;;;16.10;10.75;;;;;;;;;;1501534;39;20275;-62
2021/07/08 00:08:15;;;;;;;15.05;10.13;;;;;;;;;;1501469;39;20026;-62
2021/07/08 00:09:18;;;;;;;19.00;11.13;;;;;;;;;;1501751;39;20050;-62
2021/07/08 00:10:25;;;;;;;16.08;10.30;;;;;;;;;;1501099;39;20106;-62
2021/07/08 00:11:27;;;;;;;17.52;9.80;;;;;;;;;;1501260;39;20033;-62
2021/07/08 00:12:28;;;;;;;12.35;9.63;;;;;;;;;;1501620;39;20067;-62
2021/07/08 00:13:30;;;;;;;15.63;10.85;;;;;;;;;;1501461;39;20394;-62
2021/07/08 00:14:31;;;;;;;19.48;10.57;;;;;;;;;;1501476;39;20041;-63
2021/07/08 00:15:33;;;;;;;14.40;10.50;;;;;;;;;;1501517;39;20035;-62
2021/07/08 00:16:35;;;;;;;14.50;9.82;;;;;;;;;;1501482;39;20064;-62
2021/07/08 00:17:37;;;;;;;13.68;10.55;;;;;;;;;;1501466;39;20023;-63
2021/07/08 00:18:39;;;;;;;18.92;10.77;;;;;;;;;;1501451;39;20074;-62
2021/07/08 00:19:39;;;;;;;15.55;10.23;;;;;;;;;;1501577;39;20023;-63
2021/07/08 00:20:45;;;;;;;16.83;11.10;;;;;;;;;;1501598;39;20382;-62
2021/07/08 00:21:46;;;;;;;14.27;10.52;;;;;;;;;;1501656;39;20057;-62
2021/07/08 00:22:48;;;;;;;17.15;10.88;;;;;;;;;;1501465;39;20026;-61
2021/07/08 00:23:49;;;;;;;18.17;10.82;;;;;;;;;;1501427;39;20084;-62
2021/07/08 00:24:52;;;;;;;13.38;9.85;;;;;;;;;;1501616;39;20039;-61
2021/07/08 00:25:55;;;;;;;14.98;9.57;;;;;;;;;;1501430;39;20118;-61
2021/07/08 00:26:57;;;;;;;16.70;10.50;;;;;;;;;;1501643;39;20023;-62
2021/07/08 00:27:58;;;;;;;15.20;11.35;;;;;;;;;;1501444;39;20378;-62
2021/07/08 00:29:00;;;;;;;16.63;11.00;;;;;;;;;;1501575;39;20036;-62
2021/07/08 00:30:01;;;;;;;13.20;10.20;;;;;;;;;;1501485;39;20022;-62
2021/07/08 00:31:03;;;;;;;13.88;9.93;;;;;;;;;;1501533;39;20102;-62
2021/07/08 00:32:04;;;;;;;17.15;10.60;;;;;;;;;;1501392;39;20294;-62
2021/07/08 00:33:06;;;;;;;18.70;10.20;;;;;;;;;;1501484;39;20058;-62
2021/07/08 00:34:07;;;;;;;13.93;10.30;;;;;;;;;;1501454;39;20026;-62
2021/07/08 00:35:11;;;;;;;14.15;10.02;;;;;;;;;;1501470;39;20023;-62
2021/07/08 00:36:12;;;;;;;15.38;9.63;;;;;;;;;;1501404;39;20026;-62
2021/07/08 00:37:14;;;;;;;14.77;10.32;;;;;;;;;;1501443;39;20041;-63
2021/07/08 00:38:15;;;;;;;16.45;10.02;;;;;;;;;;1501338;39;20103;-62
2021/07/08 00:39:17;;;;;;;16.10;10.10;;;;;;;;;;1501340;39;20023;-62
2021/07/08 00:40:19;;;;;;;14.82;10.10;;;;;;;;;;1501453;39;20015;-62
2021/07/08 00:41:22;;;;;;;12.00;9.75;;;;;;;;;;1501558;39;20031;-62
2021/07/08 00:42:23;;;;;;;13.35;9.50;;;;;;;;;;1501403;39;20080;-62
2021/07/08 00:43:27;;;;;;;18.40;10.70;;;;;;;;;;1501309;39;20031;-61
2021/07/08 00:44:28;;;;;;;13.65;10.27;;;;;;;;;;1501361;39;20026;-62
2021/07/08 00:45:30;;;;;;;14.00;10.35;;;;;;;;;;1501491;39;20290;-62
2021/07/08 00:46:31;;;;;;;13.75;10.20;;;;;;;;;;1501462;39;20023;-62
2021/07/08 00:47:33;;;;;;;14.02;9.50;;;;;;;;;;1501556;39;20023;-62
2021/07/08 00:48:35;;;;;;;17.85;10.73;;;;;;;;;;1501626;39;20046;-62
2021/07/08 00:49:35;;;;;;;14.50;10.75;;;;;;;;;;1501407;39;20102;-62
2021/07/08 00:50:42;;;;;;;13.50;10.48;;;;;;;;;;1501463;39;20023;-62
2021/07/08 00:51:43;;;;;;;15.68;10.52;;;;;;;;;;1501372;39;20027;-63
2021/07/08 00:52:45;;;;;;;14.75;11.20;;;;;;;;;;1501307;39;20030;-61
2021/07/08 00:53:46;;;;;;;14.20;10.15;;;;;;;;;;1501477;39;20380;-63
2021/07/08 00:54:47;;;;;;;14.10;10.05;;;;;;;;;;1501523;39;20111;-62
2021/07/08 00:55:56;;;;;;;13.77;9.73;;;;;;;;;;1501420;39;20072;-62
2021/07/08 00:56:58;;;;;;;13.55;10.18;;;;;;;;;;1501401;39;20027;-62
2021/07/08 00:57:59;;;;;;;13.73;9.82;;;;;;;;;;1501461;39;20023;-62
2021/07/08 00:59:03;;;;;;;11.43;9.02;;;;;;;;;;1501414;39;20035;-62
2021/07/08 01:00:06;;;;;;;14.20;9.90;;;;;;;;;;1501415;39;20034;-62
2021/07/08 01:01:08;;;;;;;14.07;10.93;;;;;;;;;;1501440;39;20031;-62
2021/07/08 01:02:09;;;;;;;14.35;10.98;;;;;;;;;;1501314;39;20107;-62
2021/07/08 01:03:14;;;;;;;13.50;9.90;;;;;;;;;;1501335;39;20387;-62
2021/07/08 01:04:15;;;;;;;14.02;9.98;;;;;;;;;;1501426;39;20027;-62
2021/07/08 01:05:18;;;;;;;12.88;10.23;;;;;;;;;;1501356;39;20104;-62
2021/07/08 01:06:19;;;;;;;13.90;10.02;;;;;;;;;;1501270;39;20263;-62
2021/07/08 01:07:23;;;;;;;15.15;10.48;;;;;;;;;;1501364;39;20034;-62
2021/07/08 01:08:24;;;;;;;15.02;10.65;;;;;;;;;;1501313;39;20018;-62
2021/07/08 01:09:26;;;;;;;13.45;9.73;;;;;;;;;;1501435;39;20286;-62
2021/07/08 01:10:27;;;;;;;12.48;10.15;;;;;;;;;;1501308;39;20290;-62
2021/07/08 01:11:30;;;;;;;15.70;11.20;;;;;;;;;;1501504;39;20066;-62
2021/07/08 01:12:31;;;;;;;13.45;10.30;;;;;;;;;;1501238;39;20390;-62
2021/07/08 01:13:43;;;;;;;13.85;10.07;;;;;;;;;;1501344;39;20038;-62
2021/07/08 01:14:44;;;;;;;12.20;9.98;;;;;;;;;;1501294;39;20023;-62
2021/07/08 01:15:46;;;;;;;14.45;10.23;;;;;;;;;;1501356;39;20329;-62
2021/07/08 01:16:47;;;;;;;12.93;9.93;;;;;;;;;;1501364;39;20023;-62
2021/07/08 01:17:50;;;;;;;13.40;9.75;;;;;;;;;;1501363;39;20031;-62
2021/07/08 01:18:51;;;;;;;14.07;10.75;;;;;;;;;;1501264;39;20390;-62
2021/07/08 01:19:53;;;;;;;16.45;10.30;;;;;;;;;;1501486;39;20019;-63
2021/07/08 01:20:54;;;;;;;14.02;9.77;;;;;;;;;;1501423;39;20030;-63
2021/07/08 01:21:57;;;;;;;14.48;10.07;;;;;;;;;;1501242;39;20383;-62
2021/07/08 01:22:58;;;;;;;12.32;9.32;;;;;;;;;;1501231;39;20023;-61
2021/07/08 01:24:02;;;;;;;13.13;9.88;;;;;;;;;;1501300;39;20023;-62
2021/07/08 01:25:05;;;;;;;13.32;9.63;;;;;;;;;;1501290;39;20023;-62
2021/07/08 01:26:07;;;;;;;13.43;9.93;;;;;;;;;;1501298;39;20027;-62
2021/07/08 01:27:08;;;;;;;13.35;9.82;;;;;;;;;;1501383;39;20029;-63
2021/07/08 01:28:11;;;;;;;16.35;9.23;;;;;;;;;;1501453;39;20109;-62
2021/07/08 01:29:12;;;;;;;11.27;8.60;;;;;;;;;;1501242;39;20090;-62
2021/07/08 01:30:15;;;;;;;13.55;9.75;;;;;;;;;;1501506;39;20023;-62
2021/07/08 01:31:16;;;;;;;13.50;9.23;;;;;;;;;;1501410;39;20026;-62
2021/07/08 01:32:18;;;;;;;15.50;9.45;;;;;;;;;;1501622;39;20095;-62
2021/07/08 01:33:19;;;;;;;12.80;8.65;;;;;;;;;;1501300;39;20101;-61
2021/07/08 01:34:21;;;;;;;11.95;9.13;;;;;;;;;;1501204;39;20023;-62
2021/07/08 01:35:22;;;;;;;13.98;9.13;;;;;;;;;;1501306;39;20038;-62
2021/07/08 01:36:23;;;;;;;14.48;8.85;;;;;;;;;;1501435;39;20296;-61
2021/07/08 01:37:26;;;;;;;13.70;8.93;;;;;;;;;;1501256;39;20462;-62
2021/07/08 01:38:28;;;;;;;12.40;9.27;;;;;;;;;;1501301;39;20034;-62
2021/07/08 01:39:29;;;;;;;14.15;9.07;;;;;;;;;;1501189;39;20059;-63
2021/07/08 01:40:32;;;;;;;12.95;8.60;;;;;;;;;;1501173;39;20036;-62
2021/07/08 01:41:32;;;;;;;11.57;8.88;;;;;;;;;;1501297;39;20106;-63
2021/07/08 01:42:35;;;;;;;13.52;8.80;;;;;;;;;;1501263;39;20111;-62
2021/07/08 01:43:38;;;;;;;12.43;8.48;;;;;;;;;;1501293;39;20023;-63
2021/07/08 01:44:40;;;;;;;13.55;8.75;;;;;;;;;;1501430;39;20039;-58
2021/07/08 01:45:41;;;;;;;13.57;8.50;;;;;;;;;;1501205;39;20023;-58
2021/07/08 01:46:43;;;;;;;13.93;9.23;;;;;;;;;;1501426;39;20108;-58
2021/07/08 01:47:46;;;;;;;13.25;9.13;;;;;;;;;;1501155;39;20023;-58
2021/07/08 01:48:48;;;;;;;13.35;8.50;;;;;;;;;;1501151;39;20023;-58
2021/07/08 01:49:49;;;;;;;10.88;8.48;;;;;;;;;;1501340;39;20030;-58
2021/07/08 01:50:51;;;;;;;11.85;8.57;;;;;;;;;;1501950;39;20103;-58
2021/07/08 01:51:52;;;;;;;14.52;8.85;;;;;;;;;;1501832;39;20026;-58
2021/07/08 01:52:55;;;;;;;12.13;8.48;;;;;;;;;;1501914;39;20107;-58
2021/07/08 01:53:56;;;;;;;14.57;9.20;;;;;;;;;;1501924;39;20023;-58
2021/07/08 01:54:58;;;;;;;12.02;8.63;;;;;;;;;;1502026;39;20023;-59
2021/07/08 01:55:59;;;;;;;12.38;8.43;;;;;;;;;;1501801;39;20294;-58
2021/07/08 01:57:01;;;;;;;13.55;8.48;;;;;;;;;;1502040;39;20023;-59
2021/07/08 01:58:02;;;;;;;12.05;8.85;;;;;;;;;;1501785;39;20030;-58
2021/07/08 01:59:04;;;;;;;10.77;8.30;;;;;;;;;;1501877;39;20031;-58
2021/07/08 02:00:07;;;;;;;14.10;8.57;;;;;;;;;;1501785;39;20023;-58
2021/07/08 02:01:08;;;;;;;10.57;8.20;;;;;;;;;;1501885;39;20401;-59
2021/07/08 02:02:09;;;;;;;12.60;8.13;;;;;;;;;;1501902;39;20290;-58
2021/07/08 02:03:11;;;;;;;12.65;8.75;;;;;;;;;;1501886;39;20035;-58
2021/07/08 02:04:12;;;;;;;13.48;8.57;;;;;;;;;;1501828;39;20019;-58
2021/07/08 02:05:14;;;;;;;11.18;8.15;;;;;;;;;;1501993;39;20374;-58
2021/07/08 02:06:15;;;;;;;12.02;8.20;;;;;;;;;;1501883;39;20022;-58
2021/07/08 02:07:17;;;;;;;12.02;8.00;;;;;;;;;;1502043;39;20093;-58
2021/07/08 02:08:19;;;;;;;10.05;8.05;;;;;;;;;;1501742;39;20029;-59
2021/07/08 02:09:21;;;;;;;10.88;8.02;;;;;;;;;;1501827;39;20290;-58
2021/07/08 02:10:22;;;;;;;13.10;7.47;;;;;;;;;;1501919;39;20045;-58
2021/07/08 02:11:24;;;;;;;12.30;8.45;;;;;;;;;;1501939;39;20379;-58
2021/07/08 02:12:25;;;;;;;12.35;7.93;;;;;;;;;;1501770;39;20023;-58
2021/07/08 02:13:26;;;;;;;12.27;8.60;;;;;;;;;;1501793;39;20041;-58
2021/07/08 02:14:28;;;;;;;12.27;8.75;;;;;;;;;;1501919;39;20030;-59
2021/07/08 02:15:30;;;;;;;14.95;9.00;;;;;;;;;;1501755;39;20019;-59
2021/07/08 02:16:31;;;;;;;14.15;8.02;;;;;;;;;;1501773;39;20285;-58
2021/07/08 02:17:33;;;;;;;9.00;7.10;;;;;;;;;;1501791;39;20023;-58
2021/07/08 02:18:34;;;;;;;11.93;7.10;;;;;;;;;;1501777;39;20290;-58
2021/07/08 02:19:36;;;;;;;12.30;7.47;;;;;;;;;;1501756;39;20411;-58
2021/07/08 02:20:38;;;;;;;13.38;7.65;;;;;;;;;;1501676;39;20019;-59
2021/07/08 02:21:39;;;;;;;11.38;8.27;;;;;;;;;;1501777;39;20406;-58
2021/07/08 02:22:42;;;;;;;12.52;7.85;;;;;;;;;;1501700;39;20019;-60
2021/07/08 02:23:44;;;;;;;10.07;7.75;;;;;;;;;;1501765;39;20023;-58
2021/07/08 02:24:47;;;;;;;13.25;7.85;;;;;;;;;;1501790;39;20019;-58
2021/07/08 02:25:48;;;;;;;10.52;7.72;;;;;;;;;;1501691;39;20019;-58
2021/07/08 02:26:50;;;;;;;12.43;8.07;;;;;;;;;;1501877;39;20023;-59
2021/07/08 02:27:51;;;;;;;12.82;8.50;;;;;;;;;;1501725;39;20019;-59
2021/07/08 02:28:53;;;;;;;11.10;7.88;;;;;;;;;;1501779;39;20023;-58
2021/07/08 02:29:54;;;;;;;11.60;8.40;;;;;;;;;;1501842;39;20045;-58
2021/07/08 02:30:57;;;;;;;11.82;7.35;;;;;;;;;;1501834;39;20034;-58
2021/07/08 02:31:58;;;;;;;9.32;7.43;;;;;;;;;;1501783;39;20030;-59
2021/07/08 02:33:00;;;;;;;9.13;7.55;;;;;;;;;;1501746;39;20094;-58
2021/07/08 02:34:00;;;;;;;11.00;7.72;;;;;;;;;;1501667;39;20049;-59
2021/07/08 02:35:02;;;;;;;12.27;7.35;;;;;;;;;;1501797;39;20478;-58
2021/07/08 02:36:05;;;;;;;11.15;7.82;;;;;;;;;;1501793;39;20023;-59
2021/07/08 02:37:08;;;;;;;14.30;7.80;;;;;;;;;;1501802;39;20096;-58
2021/07/08 02:38:09;;;;;;;15.40;8.73;;;;;;;;;;1501779;39;20023;-58
2021/07/08 02:39:12;;;;;;;16.63;9.13;;;;;;;;;;1501689;39;20347;-58
2021/07/08 02:40:15;;;;;;;15.13;8.65;;;;;;;;;;1501636;39;20026;-58
2021/07/08 02:41:17;;;;;;;13.23;7.63;;;;;;;;;;1501906;39;20386;-59
2021/07/08 02:42:18;;;;;;;11.90;7.32;;;;;;;;;;1501727;39;20019;-59
2021/07/08 02:43:19;;;;;;;10.70;6.97;;;;;;;;;;1501623;39;20057;-58
2021/07/08 02:44:20;;;;;;;9.75;7.03;;;;;;;;;;1501722;39;20046;-58
2021/07/08 02:45:24;;;;;;;9.98;7.07;;;;;;;;;;1501733;39;20034;-59
2021/07/08 02:46:25;;;;;;;12.35;8.05;;;;;;;;;;1501788;39;20038;-58
2021/07/08 02:47:26;;;;;;;10.00;7.85;;;;;;;;;;1501837;39;20049;-58
2021/07/08 02:48:27;;;;;;;9.85;7.53;;;;;;;;;;1501793;39;20019;-59
2021/07/08 02:49:29;;;;;;;12.02;8.05;;;;;;;;;;1501767;39;20019;-59
2021/07/08 02:50:31;;;;;;;10.48;6.68;;;;;;;;;;1501862;39;20019;-58
2021/07/08 02:51:32;;;;;;;12.02;7.32;;;;;;;;;;1501716;39;20029;-58
2021/07/08 02:52:33;;;;;;;10.73;7.70;;;;;;;;;;1501744;39;20034;-60
2021/07/08 02:53:35;;;;;;;10.90;7.25;;;;;;;;;;1501778;39;20042;-58
2021/07/08 02:54:38;;;;;;;12.32;6.70;;;;;;;;;;1501676;39;20340;-59
2021/07/08 02:55:40;;;;;;;11.23;6.90;;;;;;;;;;1501750;39;20027;-59
2021/07/08 02:56:41;;;;;;;9.85;7.28;;;;;;;;;;1501542;39;20023;-58
2021/07/08 02:57:45;;;;;;;10.55;6.75;;;;;;;;;;1501783;39;20034;-58
2021/07/08 02:58:46;;;;;;;8.45;6.57;;;;;;;;;;1501609;39;20031;-59
2021/07/08 02:59:48;;;;;;;9.60;7.10;;;;;;;;;;1501629;39;20031;-58
2021/07/08 03:00:49;;;;;;;12.80;7.47;;;;;;;;;;1501584;39;20027;-58
2021/07/08 03:01:51;;;;;;;8.82;6.75;;;;;;;;;;1501481;39;20067;-58
2021/07/08 03:02:52;;;;;;;10.20;7.13;;;;;;;;;;1501600;39;20043;-58
2021/07/08 03:03:54;;;;;;;9.15;6.65;;;;;;;;;;1501710;39;20019;-58
2021/07/08 03:04:55;;;;;;;9.68;6.97;;;;;;;;;;1501711;39;20023;-58
2021/07/08 03:05:57;;;;;;;9.60;7.10;;;;;;;;;;1501636;39;20272;-59
2021/07/08 03:06:58;;;;;;;8.32;6.90;;;;;;;;;;1501627;39;20031;-59
2021/07/08 03:08:00;;;;;;;13.95;7.70;;;;;;;;;;1501720;39;20026;-58
2021/07/08 03:09:01;;;;;;;14.65;7.72;;;;;;;;;;1501625;39;20030;-58
2021/07/08 03:10:04;;;;;;;9.95;7.82;;;;;;;;;;1501734;39;20031;-59
2021/07/08 03:11:05;;;;;;;12.15;8.02;;;;;;;;;;1501731;39;20103;-59
2021/07/08 03:12:08;;;;;;;10.48;7.47;;;;;;;;;;1501835;39;20404;-58
2021/07/08 03:13:10;;;;;;;11.10;7.40;;;;;;;;;;1501647;39;20295;-58
2021/07/08 03:14:11;;;;;;;9.85;7.30;;;;;;;;;;1501697;39;20019;-59
2021/07/08 03:15:14;;;;;;;10.10;7.20;;;;;;;;;;1501678;39;20027;-58
2021/07/08 03:16:14;;;;;;;10.07;6.97;;;;;;;;;;1501593;39;20023;-59
2021/07/08 03:17:16;;;;;;;11.55;7.65;;;;;;;;;;1501809;39;20023;-58
2021/07/08 03:18:17;;;;;;;7.65;6.57;;;;;;;;;;1501617;39;20023;-58
2021/07/08 03:19:19;;;;;;;11.27;7.43;;;;;;;;;;1501771;39;20023;-59
2021/07/08 03:20:22;;;;;;;10.02;6.72;;;;;;;;;;1501631;39;20023;-59
2021/07/08 03:21:23;;;;;;;8.75;7.18;;;;;;;;;;1501741;39;20033;-58
2021/07/08 03:22:24;;;;;;;9.18;7.63;;;;;;;;;;1501611;39;20027;-58
2021/07/08 03:23:26;;;;;;;10.88;6.95;;;;;;;;;;1501710;39;20030;-59
2021/07/08 03:24:27;;;;;;;10.73;7.85;;;;;;;;;;1501611;39;20019;-58
2021/07/08 03:25:30;;;;;;;9.43;6.97;;;;;;;;;;1501546;39;20023;-58
2021/07/08 03:26:31;;;;;;;12.93;7.78;;;;;;;;;;1501761;39;20019;-58
2021/07/08 03:27:33;;;;;;;10.00;7.40;;;;;;;;;;1501801;39;20280;-59
2021/07/08 03:28:35;;;;;;;9.32;7.32;;;;;;;;;;1501583;39;20026;-59
2021/07/08 03:29:36;;;;;;;11.38;8.00;;;;;;;;;;1501575;39;20023;-59
2021/07/08 03:30:38;;;;;;;9.35;7.50;;;;;;;;;;1501753;39;20131;-60
2021/07/08 03:31:39;;;;;;;10.20;7.22;;;;;;;;;;1501643;39;20027;-58
2021/07/08 03:32:41;;;;;;;10.45;7.20;;;;;;;;;;1501447;39;20038;-60
2021/07/08 03:33:42;;;;;;;10.40;7.63;;;;;;;;;;1501500;39;20019;-59
2021/07/08 03:34:44;;;;;;;10.18;7.65;;;;;;;;;;1501590;39;20290;-60
2021/07/08 03:35:44;;;;;;;11.75;7.93;;;;;;;;;;1501667;39;20026;-59
2021/07/08 03:36:46;;;;;;;10.02;7.70;;;;;;;;;;1501620;39;20281;-58
2021/07/08 03:37:47;;;;;;;11.52;7.75;;;;;;;;;;1501534;39;20398;-59
2021/07/08 03:38:49;;;;;;;9.85;7.45;;;;;;;;;;1501714;39;20068;-60
2021/07/08 03:39:50;;;;;;;12.32;7.65;;;;;;;;;;1501691;39;20027;-59
2021/07/08 03:40:54;;;;;;;10.05;7.18;;;;;;;;;;1501541;39;20022;-59
2021/07/08 03:41:54;;;;;;;10.85;7.85;;;;;;;;;;1501523;39;20034;-59
2021/07/08 03:42:56;;;;;;;9.55;7.05;;;;;;;;;;1501498;39;20023;-58
2021/07/08 03:43:57;;;;;;;8.77;7.50;;;;;;;;;;1501692;39;20023;-58
2021/07/08 03:44:59;;;;;;;9.80;7.50;;;;;;;;;;1501751;39;20397;-58
2021/07/08 03:46:00;;;;;;;12.43;7.70;;;;;;;;;;1501577;39;20019;-58
2021/07/08 03:47:02;;;;;;;11.95;7.80;;;;;;;;;;1501791;39;20023;-59
2021/07/08 03:48:03;;;;;;;10.93;7.47;;;;;;;;;;1500930;39;20019;-59
2021/07/08 03:49:05;;;;;;;11.13;7.43;;;;;;;;;;1501153;39;20537;-58
2021/07/08 03:50:09;;;;;;;10.00;6.88;;;;;;;;;;1501515;39;20023;-58
2021/07/08 03:51:10;;;;;;;10.45;7.45;;;;;;;;;;1501500;39;20474;-58
2021/07/08 03:52:11;;;;;;;12.43;7.45;;;;;;;;;;1501674;39;20030;-58
2021/07/08 03:53:13;;;;;;;14.38;8.23;;;;;;;;;;1501500;39;20405;-59
2021/07/08 03:54:14;;;;;;;9.98;7.35;;;;;;;;;;1501478;39;20391;-59
2021/07/08 03:55:18;;;;;;;9.75;7.20;;;;;;;;;;1501509;39;20023;-59
2021/07/08 03:56:20;;;;;;;9.48;7.10;;;;;;;;;;1501499;39;20019;-59
2021/07/08 03:57:22;;;;;;;10.73;7.55;;;;;;;;;;1501692;39;20140;-59
2021/07/08 03:58:23;;;;;;;10.98;7.55;;;;;;;;;;1501473;39;20041;-59
2021/07/08 03:59:25;;;;;;;11.18;7.03;;;;;;;;;;1501685;39;20026;-59
2021/07/08 04:00:29;;;;;;;10.45;7.05;;;;;;;;;;1501577;39;20030;-58
2021/07/08 04:01:31;;;;;;;9.98;7.10;;;;;;;;;;1501600;39;20118;-58
2021/07/08 04:02:33;;;;;;;10.57;6.93;;;;;;;;;;1501506;39;20023;-60
2021/07/08 04:03:35;;;;;;;9.75;7.03;;;;;;;;;;1501603;39;20055;-59
2021/07/08 04:04:38;;;;;;;9.00;6.63;;;;;;;;;;1501478;39;20405;-58
2021/07/08 04:05:40;;;;;;;10.63;6.95;;;;;;;;;;1501520;39;20023;-58
2021/07/08 04:06:41;;;;;;;11.77;7.22;;;;;;;;;;1501651;39;20019;-58
2021/07/08 04:07:43;;;;;;;9.48;6.50;;;;;;;;;;1501474;39;20019;-58
2021/07/08 04:08:44;;;;;;;9.20;6.65;;;;;;;;;;1501523;39;20016;-61
2021/07/08 04:09:46;;;;;;;10.75;7.22;;;;;;;;;;1501574;39;20275;-59
2021/07/08 04:10:47;;;;;;;10.10;6.93;;;;;;;;;;1501441;39;20019;-59
2021/07/08 04:11:50;;;;;;;10.45;7.15;;;;;;;;;;1501631;39;20027;-58
2021/07/08 04:12:51;;;;;;;8.75;6.75;;;;;;;;;;1501405;39;20030;-58
2021/07/08 04:13:53;;;;;;;12.10;6.72;;;;;;;;;;1501122;39;20023;-59
2021/07/08 04:14:53;;;;;;;10.48;7.00;;;;;;;;;;1501429;39;20030;-59
2021/07/08 04:15:55;;;;;;;9.65;6.32;;;;;;;;;;1501436;39;20027;-60
2021/07/08 04:16:56;;;;;;;7.60;6.30;;;;;;;;;;1501580;39;20019;-59
2021/07/08 04:17:59;;;;;;;11.32;6.82;;;;;;;;;;1501591;39;20267;-59
2021/07/08 04:19:02;;;;;;;8.80;6.68;;;;;;;;;;1501500;39;20264;-59
2021/07/08 04:20:07;;;;;;;11.05;6.40;;;;;;;;;;1501563;39;20039;-58
2021/07/08 04:21:08;;;;;;;10.25;6.88;;;;;;;;;;1501370;39;20031;-58
2021/07/08 04:22:10;;;;;;;10.65;6.47;;;;;;;;;;1501527;39;20023;-59
2021/07/08 04:23:11;;;;;;;12.85;6.45;;;;;;;;;;1501384;39;20334;-59
2021/07/08 04:24:13;;;;;;;8.18;6.00;;;;;;;;;;1501489;39;20379;-59
2021/07/08 04:25:15;;;;;;;10.07;6.15;;;;;;;;;;1501412;39;20015;-59
2021/07/08 04:26:18;;;;;;;9.38;6.20;;;;;;;;;;1501456;39;20031;-58
2021/07/08 04:27:20;;;;;;;9.20;6.13;;;;;;;;;;1501453;39;20409;-58
2021/07/08 04:28:22;;;;;;;10.25;6.28;;;;;;;;;;1501579;39;20027;-59
2021/07/08 04:29:22;;;;;;;9.10;6.32;;;;;;;;;;1501516;39;20393;-59
2021/07/08 04:30:25;;;;;;;8.40;5.82;;;;;;;;;;1501734;39;20019;-59
2021/07/08 04:31:26;;;;;;;9.20;6.13;;;;;;;;;;1501398;39;20383;-59
2021/07/08 04:32:28;;;;;;;10.80;6.45;;;;;;;;;;1501473;39;20030;-59
2021/07/08 04:33:29;;;;;;;9.02;6.60;;;;;;;;;;1501517;39;20042;-59
2021/07/08 04:34:31;;;;;;;8.18;6.45;;;;;;;;;;1501605;39;20027;-59
2021/07/08 04:35:32;;;;;;;10.68;6.75;;;;;;;;;;1501407;39;20031;-60
2021/07/08 04:36:34;;;;;;;9.07;6.50;;;;;;;;;;1500855;39;20276;-59
2021/07/08 04:37:41;;;;;;;8.93;6.55;;;;;;;;;;1500886;39;20026;-59
2021/07/08 04:38:46;;;;;;;11.60;7.05;;;;;;;;;;1501520;39;20034;-59
2021/07/08 04:39:47;;;;;;;9.82;6.13;;;;;;;;;;1501644;39;20023;-58
2021/07/08 04:40:49;;;;;;;11.02;6.97;;;;;;;;;;1501659;39;20023;-58
2021/07/08 04:41:50;;;;;;;10.32;6.55;;;;;;;;;;1501538;39;20023;-59
2021/07/08 04:42:53;;;;;;;10.00;6.75;;;;;;;;;;1501620;39;20034;-60
2021/07/08 04:43:54;;;;;;;9.77;6.30;;;;;;;;;;1501475;39;20027;-59
2021/07/08 04:44:56;;;;;;;9.15;6.10;;;;;;;;;;1501614;39;20027;-59
2021/07/08 04:45:57;;;;;;;9.73;6.25;;;;;;;;;;1501355;39;20052;-59
2021/07/08 04:47:01;;;;;;;12.07;6.45;;;;;;;;;;1501469;39;20027;-59
2021/07/08 04:48:03;;;;;;;8.40;6.45;;;;;;;;;;1501327;39;20019;-59
2021/07/08 04:49:04;;;;;;;8.32;6.53;;;;;;;;;;1501469;39;20383;-58
2021/07/08 04:50:09;;;;;;;8.73;6.82;;;;;;;;;;1501347;39;20018;-58
2021/07/08 04:51:11;;;;;;;7.32;5.78;;;;;;;;;;1501547;39;20027;-59
2021/07/08 04:52:12;;;;;;;11.45;6.30;;;;;;;;;;1501546;39;20026;-60
2021/07/08 04:53:16;;;;;;;10.70;6.70;;;;;;;;;;1501321;39;20426;-59
2021/07/08 04:54:17;;;;;;;8.90;6.22;;;;;;;;;;1501414;39;20027;-58
2021/07/08 04:55:21;;;;;;;9.57;6.80;;;;;;;;;;1501416;39;20023;-60
2021/07/08 04:56:22;;;;;;;9.32;7.10;;;;;;;;;;1501301;39;20030;-60
2021/07/08 04:57:24;;;;;;;8.63;6.65;;;;;;;;;;1501401;39;20490;-59
2021/07/08 04:58:27;;;;;;;9.43;6.97;;;;;;;;;;1501411;39;20023;-59
2021/07/08 04:59:28;;;;;;;9.43;6.68;;;;;;;;;;1501414;39;20022;-59
2021/07/08 05:00:29;;;;;;;8.98;6.75;;;;;;;;;;1501323;39;20027;-59
2021/07/08 05:01:31;;;;;;;10.18;7.03;;;;;;;;;;1501348;39;20019;-59
2021/07/08 05:02:32;;;;;;;10.95;7.25;;;;;;;;;;1501436;39;20023;-60
2021/07/08 05:03:34;;;;;;;15.27;7.30;;;;;;;;;;1501468;39;20425;-59
2021/07/08 05:04:34;;;;;;;11.27;7.15;;;;;;;;;;1501298;39;20298;-59
2021/07/08 05:05:36;;;;;;;10.52;7.22;;;;;;;;;;1501573;39;20019;-59
2021/07/08 05:06:37;;;;;;;13.27;7.30;;;;;;;;;;1501302;39;20405;-59
2021/07/08 05:07:39;;;;;;;12.57;7.35;;;;;;;;;;1501405;39;20034;-58
2021/07/08 05:08:41;;;;;;;12.80;7.80;;;;;;;;;;1501339;39;20019;-59
2021/07/08 05:09:42;;;;;;;10.20;7.35;;;;;;;;;;1501430;39;20031;-59
2021/07/08 05:10:43;;;;;;;11.48;8.00;;;;;;;;;;1501285;39;20027;-59
2021/07/08 05:11:45;;;;;;;12.40;8.68;;;;;;;;;;1501406;39;20027;-59
2021/07/08 05:12:46;;;;;;;10.32;7.85;;;;;;;;;;1501260;39;20019;-60
2021/07/08 05:13:49;;;;;;;13.13;8.57;;;;;;;;;;1501377;39;20142;-59
2021/07/08 05:14:50;;;;;;;12.30;8.60;;;;;;;;;;1501443;39;20104;-61
2021/07/08 05:15:52;;;;;;;12.18;8.77;;;;;;;;;;1501572;39;20026;-59
2021/07/08 05:16:53;;;;;;;12.57;8.95;;;;;;;;;;1501451;39;20026;-59
2021/07/08 05:17:55;;;;;;;13.25;9.80;;;;;;;;;;1500964;39;20382;-61
2021/07/08 05:18:55;;;;;;;12.48;9.38;;;;;;;;;;1500938;39;20026;-59
2021/07/08 05:19:57;;;;;;;13.85;10.32;;;;;;;;;;1501297;39;20272;-59
2021/07/08 05:21:00;;;;;;;13.95;9.23;;;;;;;;;;1501225;39;20019;-59
2021/07/08 05:22:01;;;;;;;16.08;10.27;;;;;;;;;;1501286;39;20059;-58
2021/07/08 05:23:05;;;;;;;9.02;7.05;;;;;;;;;;1501331;39;20294;-59
2021/07/08 05:24:06;;;;;;;11.13;8.38;;;;;;;;;;1501363;39;20289;-59
2021/07/08 05:25:10;;;;;;;9.57;7.30;;;;;;;;;;1501101;39;20023;-59
2021/07/08 05:26:11;;;;;;;14.07;9.50;;;;;;;;;;1501250;39;20271;-60
2021/07/08 05:27:16;;;;;;;10.20;7.47;;;;;;;;;;1501232;39;20110;-59
2021/07/08 05:28:17;;;;;;;13.75;9.93;;;;;;;;;;1501314;39;20034;-59
2021/07/08 05:29:22;;;;;;;12.18;8.43;;;;;;;;;;1501309;39;20046;-58
2021/07/08 05:30:23;;;;;;;11.50;9.20;;;;;;;;;;1501271;39;20022;-59
2021/07/08 05:31:24;;;;;;;15.43;10.65;;;;;;;;;;1501345;39;20298;-58
2021/07/08 05:32:25;;;;;;;13.73;10.82;;;;;;;;;;1501213;39;20026;-60
2021/07/08 05:33:27;;;;;;;12.00;8.90;;;;;;;;;;1501265;39;20050;-59
2021/07/08 05:34:30;;;;;;;13.07;9.85;;;;;;;;;;1501447;39;20047;-59
2021/07/08 05:35:32;;;;;;;10.77;9.15;;;;;;;;;;1501210;39;20031;-60
2021/07/08 05:36:33;;;;;;;11.88;9.63;;;;;;;;;;1501203;39;20027;-59
2021/07/08 05:37:35;;;;;;;14.23;10.75;;;;;;;;;;1501354;39;20034;-60
2021/07/08 05:38:36;;;;;;;15.00;10.38;;;;;;;;;;1501259;39;20026;-60
2021/07/08 05:39:38;;;;;;;16.10;11.18;;;;;;;;;;1501215;39;20030;-59
2021/07/08 05:40:39;;;;;;;15.98;10.77;;;;;;;;;;1501273;39;20020;-60
2021/07/08 05:41:41;;;;;;;15.93;11.05;;;;;;;;;;1501352;39;20034;-59
2021/07/08 05:42:41;;;;;;;19.05;10.55;;;;;;;;;;1501331;39;20026;-59
2021/07/08 05:43:43;;;;;;;14.48;10.35;;;;;;;;;;1501192;39;20318;-59
2021/07/08 05:44:45;;;;;;;14.18;9.35;;;;;;;;;;1501199;39;20023;-59
2021/07/08 05:45:47;;;;;;;12.55;10.10;;;;;;;;;;1501356;39;20023;-59
2021/07/08 05:46:48;;;;;;;12.98;9.60;;;;;;;;;;1501198;39;20019;-59
2021/07/08 05:47:50;;;;;;;14.18;9.93;;;;;;;;;;1501257;39;20027;-58
2021/07/08 05:48:51;;;;;;;13.35;10.48;;;;;;;;;;1501140;39;20023;-58
2021/07/08 05:49:54;;;;;;;15.77;10.63;;;;;;;;;;1501174;39;20019;-60
2021/07/08 05:50:55;;;;;;;14.40;9.07;;;;;;;;;;1501173;39;20289;-59
2021/07/08 05:51:57;;;;;;;14.25;9.65;;;;;;;;;;1501188;39;20019;-60
2021/07/08 05:52:58;;;;;;;13.18;9.50;;;;;;;;;;1501135;39;20027;-60
2021/07/08 05:54:00;;;;;;;11.60;9.65;;;;;;;;;;1501253;39;20034;-60
2021/07/08 05:55:01;;;;;;;12.45;9.25;;;;;;;;;;1501147;39;20027;-59
2021/07/08 05:56:03;;;;;;;12.75;10.27;;;;;;;;;;1501186;39;20067;-58
2021/07/08 05:57:04;;;;;;;16.08;10.10;;;;;;;;;;1501261;39;20023;-59
2021/07/08 05:58:06;;;;;;;14.50;11.07;;;;;;;;;;1501228;39;20290;-59
2021/07/08 05:59:07;;;;;;;14.07;10.70;;;;;;;;;;1501347;39;20019;-60
2021/07/08 06:00:11;;;;;;;14.38;11.43;;;;;;;;;;1501337;39;20299;-59
2021/07/08 06:01:12;;;;;;;16.45;11.18;;;;;;;;;;1501177;39;20311;-59
2021/07/08 06:02:14;;;;;;;16.50;11.88;;;;;;;;;;1501323;39;20083;-59
2021/07/08 06:03:15;;;;;;;15.45;11.55;;;;;;;;;;1501102;39;20022;-59
2021/07/08 06:04:16;;;;;;;18.02;12.10;;;;;;;;;;1501314;39;20023;-58
2021/07/08 06:05:17;;;;;;;14.90;11.40;;;;;;;;;;1501177;39;20019;-60